Data for 03/18/2006

Time Sea-Level Adjusted Pressure Absolute Pressure Temperature Relative Humidity Dew Point   
(mb) (inHg) (mb) (inHg) (C) (F) (%) (C) (F)
00:05 1011 29.85 840 24.81 0.4 32.7 59 -6.8 19.8
00:10 1011 29.85 840 24.81 0.7 33.3 59 -6.3 20.7
00:15 1011 29.85 840 24.81 0.5 32.9 60 -6.3 20.7
00:20 1011 29.85 840 24.81 0.5 32.9 60 -6.5 20.4
00:25 1011 29.85 840 24.81 0.5 33 59 -6.5 20.3
00:30 1010 29.83 840 24.81 0.2 32.3 61 -6.4 20.4
00:35 1010 29.83 840 24.81 -0 31.9 61 -6.7 20
00:40 1010 29.83 840 24.81 0.1 32.2 60 -6.8 19.8
00:45 1010 29.83 840 24.81 -0.1 31.8 62 -6.6 20
00:50 1010 29.83 839 24.78 -0.2 31.6 60 -7 19.3
00:55 1010 29.83 840 24.81 0 32.1 60 -6.8 19.8
01:00 1010 29.83 840 24.81 -0.2 31.6 61 -6.8 19.8
01:05 1010 29.83 840 24.81 -0 31.9 60 -7 19.4
01:10 1010 29.83 840 24.81 -0.3 31.5 61 -7 19.4
01:15 1010 29.83 840 24.81 -0.8 30.6 63 -7 19.4
01:20 1010 29.83 840 24.81 -0.9 30.4 62 -7.3 18.9
01:25 1010 29.83 840 24.81 -0.7 30.7 61 -7.4 18.7
01:30 1011 29.85 840 24.81 -0.4 31.2 60 -7.3 18.8
01:35 1011 29.85 840 24.81 -0.1 31.9 58 -7.3 18.9
01:40 1011 29.85 840 24.81 0.2 32.4 58 -7.2 19.1
01:45 1011 29.85 840 24.81 0.1 32.1 58 -7.3 18.9
01:50 1011 29.85 840 24.81 -0.4 31.2 60 -7.2 19
01:55 1011 29.85 840 24.81 -0.6 30.9 61 -7.3 18.9
02:00 1011 29.85 840 24.81 -0.7 30.7 61 -7.3 18.8
02:10 1011 29.85 840 24.81 -0.7 30.8 61 -7.3 18.9
02:15 1011 29.85 840 24.81 -0.5 31.1 61 -7.2 19.1
02:20 1011 29.85 840 24.81 -0.5 31.2 58 -7.7 18.2
02:25 1011 29.85 840 24.81 -0.1 31.8 56 -7.9 17.7
02:30 1010 29.83 840 24.81 0.2 32.4 56 -7.6 18.2
02:35 1010 29.83 840 24.81 0.2 32.4 55 -7.9 17.8
02:40 1010 29.83 840 24.81 -0.3 31.4 60 -7.1 19.2
02:45 1010 29.83 840 24.81 -1.6 29.1 62 -7.9 17.8
02:50 1010 29.83 840 24.81 -1.4 29.5 60 -8.2 17.2
02:55 1010 29.83 840 24.81 -1.2 29.8 59 -8.2 17.2
03:00 1010 29.83 840 24.81 -0.9 30.3 59 -8.1 17.5
03:05 1010 29.83 840 24.81 -0.7 30.8 58 -7.9 17.7
03:10 1010 29.83 839 24.78 -0.5 31.1 58 -7.8 18
03:15 1010 29.83 839 24.78 -1.1 30 61 -7.7 18.2
03:20 1010 29.83 839 24.78 -1.2 29.9 61 -7.7 18.2
03:25 1010 29.83 839 24.78 -1.4 29.6 62 -7.7 18.1
03:30 1010 29.83 839 24.78 -1.5 29.2 63 -7.6 18.3
03:35 1010 29.83 839 24.78 -1.5 29.3 65 -7.3 18.8
03:40 1010 29.83 839 24.78 -1.3 29.6 64 -7.4 18.8
03:45 1010 29.83 839 24.78 -1.4 29.4 64 -7.4 18.6
03:50 1010 29.83 839 24.78 -1.4 29.5 63 -7.6 18.4
03:55 1010 29.83 839 24.78 -1.5 29.4 63 -7.6 18.3
04:00 1010 29.83 839 24.78 -1.5 29.3 63 -7.7 18.2
04:05 1010 29.83 839 24.78 -1.3 29.6 62 -7.7 18.1
04:10 1010 29.83 839 24.78 -1.3 29.7 60 -8 17.5
04:15 1010 29.83 839 24.78 -1.6 29.1 62 -7.9 17.8
04:20 1010 29.83 839 24.78 -1.8 28.7 61 -8.3 17
04:25 1010 29.83 839 24.78 -1.8 28.7 63 -8.1 17.5
04:30 1010 29.83 839 24.78 -1.7 28.9 62 -8.1 17.4
04:35 1010 29.83 839 24.78 -2 28.4 64 -7.9 17.8
04:40 1010 29.83 839 24.78 -2 28.3 64 -8 17.6
04:45 1010 29.83 839 24.78 -1.9 28.5 66 -7.5 18.4
04:50 1010 29.83 839 24.78 -1.3 29.6 63 -7.5 18.5
04:55 1010 29.83 839 24.78 -1.4 29.5 65 -7.1 19.2
05:00 1010 29.83 839 24.78 -1.4 29.4 64 -7.4 18.7
05:05 1010 29.83 839 24.78 -1.4 29.5 64 -7.3 18.8
05:10 1010 29.83 839 24.78 -1.5 29.2 64 -7.5 18.5
05:15 1010 29.83 839 24.78 -1.5 29.2 64 -7.5 18.5
05:20 1010 29.83 839 24.78 -1.6 29.2 65 -7.3 18.9
05:25 1010 29.83 839 24.78 -2.1 28.3 67 -7.4 18.6
05:30 1010 29.83 839 24.78 -2.5 27.4 68 -7.7 18.1
05:35 1010 29.83 839 24.78 -2.5 27.6 68 -7.6 18.2
05:40 1010 29.83 839 24.78 -2.7 27.2 69 -7.6 18.2
05:45 1010 29.83 839 24.78 -2.7 27.1 67 -8 17.6
05:50 1010 29.83 839 24.78 -2.3 27.9 66 -7.9 17.8
05:55 1010 29.83 839 24.78 -2 28.5 64 -7.8 18
06:00 1010 29.83 839 24.78 -1.8 28.7 64 -7.8 18
06:05 1010 29.83 839 24.78 -1.7 28.9 64 -7.6 18.3
06:10 1010 29.83 839 24.78 -1.8 28.8 66 -7.4 18.7
06:15 1010 29.83 839 24.78 -2 28.4 67 -7.4 18.6
06:20 1010 29.83 839 24.78 -2.2 28 68 -7.3 18.8
06:25 1010 29.83 839 24.78 -2.2 28.1 68 -7.3 18.8
06:30 1010 29.83 839 24.78 -2.1 28.3 67 -7.3 18.9
06:35 1010 29.83 839 24.78 -1.8 28.7 68 -7 19.3
06:40 1010 29.83 839 24.78 -1.8 28.8 67 -7 19.3
06:45 1010 29.83 839 24.78 -1.8 28.8 68 -7 19.5
06:50 1010 29.83 839 24.78 -1.7 28.9 67 -7.1 19.2
06:55 1010 29.83 839 24.78 -1.8 28.8 68 -7 19.4
07:00 1010 29.83 839 24.78 -1.7 28.9 68 -6.9 19.6
07:05 1010 29.83 839 24.78 -1.7 28.9 68 -6.8 19.7
07:10 1010 29.83 839 24.78 -1.9 28.5 69 -6.8 19.8
07:15 1010 29.83 839 24.78 -2.1 28.2 70 -6.9 19.6
07:20 1010 29.83 839 24.78 -2.1 28.2 71 -6.8 19.8
07:25 1010 29.83 839 24.78 -1.9 28.5 70 -6.7 19.9
07:30 1010 29.83 839 24.78 -1.6 29.1 67 -6.9 19.5
07:35 1010 29.83 839 24.78 -1.3 29.7 65 -7 19.4
07:40 1010 29.83 839 24.78 -1.1 30 64 -7.1 19.2
07:45 1010 29.83 839 24.78 -0.9 30.4 66 -6.5 20.3
07:50 1010 29.83 839 24.78 -1 30.2 68 -6.2 20.9
07:55 1010 29.83 839 24.78 -1.1 30.1 69 -6.1 21
08:00 1010 29.83 839 24.78 -1.1 30.1 68 -6.2 20.9
08:05 1010 29.83 839 24.78 -0.9 30.3 70 -5.7 21.7
08:10 1010 29.83 839 24.78 -0.8 30.6 71 -5.3 22.4
08:15 1010 29.83 840 24.81 -0.7 30.7 71 -5.4 22.3
08:20 1010 29.83 840 24.81 -0.8 30.6 71 -5.4 22.2
08:25 1010 29.83 840 24.81 -0.8 30.6 71 -5.5 22.2
08:30 1010 29.83 840 24.81 -1 30.3 72 -5.4 22.4
08:35 1010 29.83 840 24.81 -0.7 30.7 71 -5.4 22.3
08:40 1010 29.83 840 24.81 -0.4 31.2 70 -5.3 22.5
08:45 1010 29.83 840 24.81 -0.2 31.7 69 -5.2 22.6
08:50 1010 29.83 840 24.81 0 32.1 71 -4.6 23.7
08:55 1010 29.83 840 24.81 0.1 32.2 73 -4.2 24.4
09:00 1010 29.83 840 24.81 -0.1 31.9 75 -4 24.8
09:05 1010 29.83 840 24.81 -0.3 31.4 79 -3.6 25.6
09:10 1010 29.83 840 24.81 -0.4 31.3 79 -3.6 25.6
09:15 1010 29.83 840 24.81 -0.7 30.8 83 -3.3 26.1
09:20 1010 29.83 840 24.81 -0.7 30.7 83 -3.3 26
09:25 1010 29.83 840 24.81 -0.8 30.6 83 -3.3 26
09:30 1010 29.83 840 24.81 -0.7 30.8 83 -3.3 26.1
09:35 1010 29.83 840 24.81 -0.6 30.9 82 -3.3 26.1
09:40 1010 29.83 840 24.81 -0.6 30.9 85 -2.9 26.7
09:45 1010 29.83 840 24.81 -0.5 31.1 87 -2.4 27.6
09:50 1010 29.83 840 24.81 -0.5 31.2 87 -2.4 27.6
09:55 1010 29.83 839 24.78 -0.9 30.4 88 -2.6 27.3
10:00 1010 29.83 839 24.78 -1 30.1 90 -2.5 27.5
10:05 1010 29.83 839 24.78 -1.1 30 91 -2.4 27.7
10:10 1010 29.83 839 24.78 -0.9 30.3 90 -2.4 27.6
10:15 1010 29.83 839 24.78 -0.9 30.3 92 -2.1 28.2
10:20 1010 29.83 839 24.78 -1.1 30 93 -2.1 28.2
10:25 1010 29.83 839 24.78 -1 30.2 92 -2 28.3
10:30 1010 29.83 839 24.78 -0.8 30.6 91 -2 28.4
10:35 1010 29.83 839 24.78 -0.8 30.5 92 -2 28.4
10:40 1010 29.83 839 24.78 -1.2 29.9 92 -2.4 27.8
10:45 1010 29.83 839 24.78 -1.3 29.6 93 -2.3 27.9
10:50 1010 29.83 839 24.78 -1.1 30 92 -2.2 28.1
10:55 1010 29.83 839 24.78 -1.2 29.9 93 -2.2 28
11:00 1010 29.83 839 24.78 -1 30.3 93 -1.9 28.6
11:05 1010 29.83 839 24.78 -0.5 31 94 -1.4 29.4
11:10 1010 29.83 839 24.78 -0.3 31.5 92 -1.5 29.3
11:15 1010 29.83 839 24.78 -0.4 31.4 92 -1.5 29.3
11:20 1010 29.83 839 24.78 -0.6 31 92 -1.7 28.9
11:25 1010 29.83 839 24.78 -0.5 31.1 93 -1.5 29.4
11:30 1010 29.83 839 24.78 -0.3 31.5 92 -1.5 29.3
11:35 1010 29.83 839 24.78 -0.2 31.7 92 -1.4 29.5
11:40 1010 29.83 839 24.78 0.1 32.2 91 -1.1 30
11:45 1010 29.83 839 24.78 0.3 32.6 89 -1.3 29.7
11:50 1010 29.83 839 24.78 0.4 32.7 89 -1.2 29.9
11:55 1010 29.83 839 24.78 0.4 32.8 89 -1.2 29.9
12:00 1010 29.83 839 24.78 0.6 33.1 88 -1.2 29.8
12:05 1010 29.83 839 24.78 0.3 32.6 90 -1.1 30.1
12:10 1010 29.83 839 24.78 0.2 32.3 90 -1.2 29.8
12:15 1010 29.83 839 24.78 0.2 32.4 91 -1.2 29.9
12:20 1010 29.83 839 24.78 0.5 32.9 89 -1.1 30
12:25 1010 29.83 839 24.78 0.7 33.3 89 -0.9 30.4
12:30 1010 29.83 839 24.78 0.7 33.3 91 -0.6 30.9
12:35 1009 29.8 839 24.78 0.6 33.1 90 -0.9 30.4
12:40 1009 29.8 839 24.78 0.7 33.2 90 -0.9 30.4
12:45 1009 29.8 839 24.78 0.5 32.8 89 -1.1 30
12:50 1009 29.8 839 24.78 0.1 32.2 93 -0.9 30.5
12:55 1009 29.8 839 24.78 0.4 32.8 91 -0.8 30.5
13:00 1009 29.8 839 24.78 0.7 33.2 91 -0.7 30.7
13:05 1009 29.8 839 24.78 0.8 33.4 90 -0.7 30.7
13:10 1009 29.8 839 24.78 0.7 33.2 91 -0.6 30.9
13:15 1009 29.8 839 24.78 0.7 33.3 90 -0.7 30.8
13:20 1009 29.8 838 24.75 0.6 33.1 91 -0.7 30.8
13:25 1009 29.8 838 24.75 0.3 32.6 93 -0.6 30.9
13:30 1009 29.8 838 24.75 0.9 33.6 91 -0.4 31.4
13:35 1009 29.8 838 24.75 1.1 34.1 90 -0.3 31.4
13:40 1009 29.8 838 24.75 1.2 34.2 88 -0.5 31
13:45 1009 29.8 838 24.75 0.9 33.5 89 -0.7 30.8
13:50 1009 29.8 838 24.75 0.6 33.1 90 -0.8 30.5
13:55 1009 29.8 838 24.75 0.8 33.5 89 -0.8 30.5
14:00 1009 29.8 838 24.75 0.8 33.4 89 -0.9 30.4
14:05 1009 29.8 838 24.75 0.8 33.5 88 -0.9 30.5
14:10 1009 29.8 838 24.75 1.2 34.2 85 -1.1 30.1
14:15 1009 29.8 838 24.75 0.9 33.7 88 -0.8 30.6
14:20 1009 29.8 838 24.75 1.1 34.1 86 -0.9 30.3
14:25 1009 29.8 838 24.75 1.4 34.5 85 -0.8 30.6
14:30 1009 29.8 838 24.75 1.4 34.5 84 -1 30.2
14:35 1009 29.8 838 24.75 1.4 34.5 83 -1.2 29.9
14:40 1009 29.8 838 24.75 1.3 34.3 85 -1 30.2
14:45 1009 29.8 838 24.75 1.3 34.4 84 -1 30.2
14:50 1009 29.8 838 24.75 1.3 34.3 85 -1.1 30.1
14:55 1009 29.8 838 24.75 1.3 34.3 86 -0.9 30.4
15:00 1009 29.8 838 24.75 1.2 34.2 85 -1 30.2
15:05 1009 29.8 838 24.75 1.3 34.3 86 -0.9 30.4
15:10 1009 29.8 838 24.75 1.4 34.5 85 -0.9 30.4
15:15 1009 29.8 838 24.75 1.4 34.5 84 -1 30.2
15:20 1009 29.8 838 24.75 1.4 34.6 85 -0.9 30.4
15:25 1009 29.8 838 24.75 1.4 34.6 84 -0.9 30.4
15:30 1009 29.8 838 24.75 1.4 34.6 85 -0.9 30.5
15:35 1009 29.8 838 24.75 1.4 34.5 85 -0.9 30.4
15:40 1009 29.8 838 24.75 1.3 34.4 85 -0.9 30.4
15:45 1009 29.8 838 24.75 1.3 34.3 85 -1 30.2
15:50 1009 29.8 838 24.75 1.1 33.9 86 -1.1 30.1
15:55 1009 29.8 838 24.75 1 33.8 86 -1.1 30
16:00 1009 29.8 838 24.75 1 33.9 86 -1.1 30.1
16:05 1009 29.8 838 24.75 1 33.9 86 -1 30.2
16:10 1009 29.8 838 24.75 1 33.9 86 -1.1 30
16:15 1009 29.8 838 24.75 1 33.8 86 -1.1 30.1
16:20 1009 29.8 838 24.75 0.8 33.4 88 -0.9 30.4
16:25 1009 29.8 838 24.75 0.7 33.3 89 -0.9 30.4
16:30 1009 29.8 838 24.75 0.6 33 90 -0.8 30.5
16:35 1009 29.8 838 24.75 0.6 33.1 91 -0.8 30.6
16:40 1009 29.8 838 24.75 0.4 32.7 93 -0.6 30.8
16:45 1009 29.8 838 24.75 0.9 33.5 91 -0.5 31.1
16:50 1009 29.8 838 24.75 1.1 34 90 -0.4 31.3
16:55 1009 29.8 838 24.75 1.1 33.9 89 -0.6 30.9
17:00 1009 29.8 838 24.75 1.2 34.2 87 -0.7 30.7
17:05 1009 29.8 838 24.75 0.9 33.7 90 -0.6 31
17:10 1009 29.8 838 24.75 0.8 33.4 90 -0.7 30.7
17:15 1009 29.8 838 24.75 0.5 32.9 92 -0.7 30.8
17:20 1009 29.8 838 24.75 0.7 33.3 90 -0.7 30.8
17:25 1009 29.8 838 24.75 0.8 33.5 90 -0.6 30.8
17:30 1009 29.8 838 24.75 1 33.7 89 -0.6 30.9
17:35 1009 29.8 838 24.75 1 33.8 89 -0.6 30.9
17:40 1009 29.8 838 24.75 1 33.8 89 -0.6 30.8
17:45 1009 29.8 838 24.75 0.8 33.4 90 -0.7 30.8
17:50 1009 29.8 838 24.75 0.4 32.7 93 -0.7 30.8
17:55 1009 29.8 839 24.78 0.2 32.4 92 -0.9 30.4
18:00 1009 29.8 839 24.78 0.2 32.4 93 -0.8 30.5
18:05 1009 29.8 839 24.78 0.2 32.4 91 -1 30.1
18:10 1009 29.8 839 24.78 0.2 32.3 91 -1.1 30
18:15 1009 29.8 839 24.78 0.1 32.2 88 -1.7 28.9
18:20 1009 29.8 839 24.78 0 32 87 -1.9 28.5
18:25 1009 29.8 839 24.78 -0.1 31.9 87 -2.1 28.3
18:30 1009 29.8 839 24.78 -0.1 31.9 86 -2.2 28.1
18:35 1009 29.8 839 24.78 -0.2 31.6 86 -2.3 27.9
18:40 1009 29.8 839 24.78 -0.2 31.6 86 -2.3 27.9
18:45 1009 29.8 839 24.78 -0.3 31.5 85 -2.5 27.5
18:50 1009 29.8 839 24.78 -0.1 31.7 82 -2.8 26.9
18:55 1010 29.83 839 24.78 -0.2 31.6 82 -3 26.6
19:00 1010 29.83 839 24.78 -0.2 31.7 79 -3.3 26
19:05 1010 29.83 839 24.78 -0.3 31.5 79 -3.4 25.9
19:10 1010 29.83 839 24.78 -0.3 31.4 80 -3.5 25.8
19:15 1010 29.83 839 24.78 -0.4 31.2 79 -3.6 25.5
19:20 1010 29.83 839 24.78 -0.3 31.4 80 -3.3 26.1
19:25 1010 29.83 839 24.78 -0.4 31.3 79 -3.5 25.6
19:30 1010 29.83 839 24.78 -0.5 31.1 81 -3.3 26
19:35 1010 29.83 839 24.78 -0.6 30.9 82 -3.3 26
19:40 1010 29.83 839 24.78 -0.6 30.9 82 -3.4 25.9
19:45 1010 29.83 839 24.78 -0.8 30.5 83 -3.4 25.9
19:50 1010 29.83 839 24.78 -0.9 30.4 84 -3.3 26.1
19:55 1010 29.83 839 24.78 -0.9 30.3 84 -3.4 25.9
20:00 1010 29.83 839 24.78 -1 30.2 84 -3.5 25.8
20:05 1010 29.83 839 24.78 -1 30.2 84 -3.4 25.9
20:10 1010 29.83 839 24.78 -1.1 30 85 -3.3 26
20:15 1010 29.83 839 24.78 -1.2 29.8 85 -3.4 25.9
20:20 1010 29.83 839 24.78 -1.3 29.7 86 -3.4 25.9
20:25 1010 29.83 839 24.78 -1.4 29.5 86 -3.4 26
20:30 1010 29.83 839 24.78 -1.4 29.6 86 -3.4 25.9
20:35 1010 29.83 839 24.78 -1.3 29.6 86 -3.4 25.9
20:40 1010 29.83 839 24.78 -1.4 29.5 87 -3.4 25.9
20:45 1010 29.83 839 24.78 -1.4 29.5 86 -3.4 25.8
20:50 1010 29.83 839 24.78 -1.4 29.4 87 -3.4 25.9
20:55 1010 29.83 839 24.78 -1.4 29.4 86 -3.4 25.8
21:00 1010 29.83 839 24.78 -1.4 29.4 87 -3.3 26
21:05 1010 29.83 839 24.78 -1.5 29.3 87 -3.3 26
21:10 1010 29.83 840 24.81 -1.5 29.3 88 -3.2 26.2
21:15 1010 29.83 840 24.81 -1.5 29.3 88 -3.3 26.1
21:20 1011 29.85 840 24.81 -1.6 29.1 89 -3.2 26.2
21:25 1011 29.85 840 24.81 -1.6 29.2 89 -3.1 26.4
21:30 1011 29.85 840 24.81 -1.6 29 90 -3.1 26.4
21:35 1011 29.85 840 24.81 -1.6 29.1 89 -3.2 26.3
21:40 1011 29.85 840 24.81 -1.7 29 89 -3.2 26.3
21:45 1011 29.85 840 24.81 -1.7 29 89 -3.3 26.1
21:50 1011 29.85 840 24.81 -1.6 29 89 -3.2 26.2
21:55 1011 29.85 840 24.81 -1.6 29 88 -3.3 26
22:00 1011 29.85 840 24.81 -1.6 29.1 88 -3.3 26.1
22:05 1011 29.85 840 24.81 -1.6 29.1 88 -3.3 26
22:10 1011 29.85 840 24.81 -1.6 29.1 88 -3.3 26
22:15 1011 29.85 840 24.81 -1.6 29.1 88 -3.3 26
22:20 1011 29.85 840 24.81 -1.5 29.2 88 -3.3 26
22:25 1011 29.85 840 24.81 -1.5 29.3 87 -3.3 26
22:30 1011 29.85 840 24.81 -1.5 29.3 88 -3.3 26.1
22:35 1011 29.85 840 24.81 -1.5 29.2 87 -3.4 25.9
22:40 1011 29.85 840 24.81 -1.5 29.3 87 -3.3 26
22:45 1011 29.85 840 24.81 -1.4 29.4 87 -3.3 26
22:50 1011 29.85 840 24.81 -1.4 29.5 86 -3.5 25.8
22:55 1011 29.85 840 24.81 -1.4 29.5 86 -3.5 25.7
23:00 1011 29.85 840 24.81 -1.3 29.7 85 -3.4 25.8
23:05 1011 29.85 840 24.81 -1.3 29.6 86 -3.4 25.8
23:10 1011 29.85 840 24.81 -1.3 29.6 86 -3.4 25.8
23:15 1011 29.85 840 24.81 -1.3 29.6 85 -3.5 25.7
23:20 1011 29.85 840 24.81 -1.3 29.6 85 -3.5 25.7
23:25 1011 29.85 840 24.81 -1.3 29.6 85 -3.6 25.5
23:30 1011 29.85 840 24.81 -1.3 29.6 84 -3.6 25.5
23:35 1011 29.85 840 24.81 -1.2 29.8 84 -3.6 25.5
23:40 1011 29.85 840 24.81 -1.3 29.7 84 -3.6 25.5
23:45 1011 29.85 840 24.81 -1.3 29.7 85 -3.6 25.6
23:50 1011 29.85 840 24.81 -1.3 29.7 85 -3.5 25.7
23:55 1011 29.85 840 24.81 -1.3 29.6 84 -3.6 25.5
24:00 1011 29.85 840 24.81 -1.4 29.6 86 -3.4 25.9